LEVCBGSF

Guest
Details From LEVC - Valencia
To BGSF - Kangerlussuaq
Flight Number -
Tags Generated
Created
Modified
Stats Distance 2,336 nm / 4,327 km
Max Altitude 0 ft / 0 m
Waypoints 5
Social Downloads 1
Likes 0
Share VATSIM

Download

Looking for another format? Having issues loading an existing format? Contact us
Advertisement - Login to hide

Notes

Generated

Route

LEVC AMTOS KUKAD SUKAK BGSF

ID Type Via Altitude Latitude Longitude Leg Dist Tot Dist Heading (true) Name
O LEVC APT - 0 ft / 0 m 39.49655˚ -0.50070˚ - 0 nm - -
AMTOS FIX - 0 ft / 0 m 43.00000˚ -3.22101˚ 243 nm 243 nm 331° / 329° -
KUKAD FIX - 0 ft / 0 m 49.24204˚ -8.90495˚ 443 nm 686 nm 330° / 326° -
SUKAK FIX - 0 ft / 0 m 66.94250˚ -50.48917˚ 1642 nm 2329 nm 326° / 289° -
O BGSF APT - 0 ft / 0 m 67.00561˚ -50.74307˚ 7 nm 2336 nm 303° / 302° -

Altitude Profile

Advertisement - Login to hide

Weather


0- 5 10 15 20 25 30 35+ Temperature / ° C

Clouds and Precipitation
Forecast for 2018-05-20 18:00 UTC. Updated an hour ago

Ground ~20,000 ft ~40,000 ft Winds

LEVC

Details ICAO LEVC (VLC)
Name Valencia
Region Spain
Timezone Europe/Madrid (UTC+2.0)
Stats Elevation 225 ft / 69 m (AMSL)
Location 39.488236° -0.483892°
Runways 2
Magnetic Variation 0.240° E

METAR

LEVC 201630Z 09009KT 050V130 9999 FEW025CB 23/12 Q1012 NOSIG

Decode

TAF

TAF AMD LEVC 201229Z 2012/2112 11010KT 9999 FEW030 TX24/2013Z TN12/2106Z TEMPO 2012/2019 FEW025CB BECMG 2018/2020 VRB04KT BECMG 2109/2111 09010KT

Decode

Departure Runways

ID Width Length Bearing (true) Bearing (mag) Surface Threshold Offset Overrun Length
12 148 ft / 45 m 10,555 ft / 3,217 m 116.25° 116.01° Asphalt 0 ft / 0 m 646 ft / 197 m
22 154 ft / 47 m 3,828 ft / 1,167 m 217.99° 217.75° Asphalt 0 ft / 0 m 0 ft / 0 m
30 148 ft / 45 m 10,555 ft / 3,217 m 296.27° 296.03° Asphalt 1,001 ft / 305 m 932 ft / 284 m
4 154 ft / 47 m 3,828 ft / 1,167 m 37.98° 37.74° Asphalt 0 ft / 0 m 0 ft / 0 m

BGSF

Details ICAO BGSF (SFJ)
Name Kangerlussuaq
Region Greenland
Timezone America/Godthab (UTC-2.0)
Stats Elevation 165 ft / 50 m (AMSL)
Location 67.011605° -50.714721°
Runways 2
Magnetic Variation 28.861° W

METAR

BGSF 201550Z AUTO 24008KT 9999NDV BKN049/// 02/M03 Q1000

Decode

TAF

Not found

Destination Runways

ID Width Length Bearing (true) Bearing (mag) Surface Threshold Offset Overrun Length
09 197 ft / 60 m 9,169 ft / 2,795 m 61.57° 90.43° Asphalt 0 ft / 0 m 509 ft / 155 m
10 197 ft / 60 m 9,187 ft / 2,800 m 61.55° 90.41° Asphalt 0 ft / 0 m 0 ft / 0 m
27 197 ft / 60 m 9,169 ft / 2,795 m 241.63° 270.49° Asphalt 0 ft / 0 m 171 ft / 52 m
28 197 ft / 60 m 9,187 ft / 2,800 m 241.60° 270.46° Asphalt 0 ft / 0 m 0 ft / 0 m

Approach Navaids

Runway Type Ident Frequency Range Bearing (true) Bearing (mag) Slope Elevation
10 Localiser ISF 109.55 MHz 18 nm / 33 km 61.60° 90.46° - 165 ft / 50 m (AMSL)
10 DME ISF 109.55 MHz 18 nm / 33 km - - - 172 ft / 52 m (AMSL)